sensor_id;sensor_type;location;lat;lon;timestamp;pressure;altitude;pressure_sealevel;temperature;humidity
37792;BME280;29527;55.766;37.570;2023-01-31T00:00:01;97880.69;;;-0.07;67.11
37792;BME280;29527;55.766;37.570;2023-01-31T00:02:27;97881.44;;;-0.18;67.12
37792;BME280;29527;55.766;37.570;2023-01-31T00:04:52;97884.81;;;-0.16;67.10
37792;BME280;29527;55.766;37.570;2023-01-31T00:07:17;97883.84;;;-0.15;67.33
37792;BME280;29527;55.766;37.570;2023-01-31T00:09:43;97877.75;;;-0.28;67.13
37792;BME280;29527;55.766;37.570;2023-01-31T00:12:08;97895.66;;;-0.21;67.11
37792;BME280;29527;55.766;37.570;2023-01-31T00:14:34;97871.78;;;-0.18;67.16
37792;BME280;29527;55.766;37.570;2023-01-31T00:16:59;97878.19;;;-0.22;67.09
37792;BME280;29527;55.766;37.570;2023-01-31T00:19:25;97881.66;;;-0.21;67.14
37792;BME280;29527;55.766;37.570;2023-01-31T00:21:52;97895.44;;;-0.18;67.30
37792;BME280;29527;55.766;37.570;2023-01-31T00:24:17;97888.50;;;-0.19;67.13
37792;BME280;29527;55.766;37.570;2023-01-31T00:26:43;97885.53;;;-0.14;66.61
37792;BME280;29527;55.766;37.570;2023-01-31T00:29:09;97890.19;;;-0.18;66.89
37792;BME280;29527;55.766;37.570;2023-01-31T00:31:34;97883.97;;;-0.17;66.61
37792;BME280;29527;55.766;37.570;2023-01-31T00:34:00;97880.91;;;-0.10;66.62
37792;BME280;29527;55.766;37.570;2023-01-31T00:36:31;97893.97;;;-0.09;66.55
37792;BME280;29527;55.766;37.570;2023-01-31T00:38:59;97878.19;;;-0.22;67.21
37792;BME280;29527;55.766;37.570;2023-01-31T00:41:26;97882.16;;;-0.16;66.70
37792;BME280;29527;55.766;37.570;2023-01-31T00:43:52;97889.22;;;-0.17;66.67
37792;BME280;29527;55.766;37.570;2023-01-31T00:46:18;97889.84;;;-0.13;66.40
37792;BME280;29527;55.766;37.570;2023-01-31T00:48:48;97882.38;;;-0.19;66.82
37792;BME280;29527;55.766;37.570;2023-01-31T00:51:14;97871.25;;;-0.36;66.86
37792;BME280;29527;55.766;37.570;2023-01-31T00:53:40;97906.56;;;-0.14;66.70
37792;BME280;29527;55.766;37.570;2023-01-31T00:56:08;97907.22;;;-0.10;66.48
37792;BME280;29527;55.766;37.570;2023-01-31T00:58:34;97904.72;;;-0.12;66.38
37792;BME280;29527;55.766;37.570;2023-01-31T01:01:07;97903.84;;;-0.12;66.70
37792;BME280;29527;55.766;37.570;2023-01-31T01:03:33;97896.91;;;-0.13;66.48
37792;BME280;29527;55.766;37.570;2023-01-31T01:05:58;97903.84;;;-0.12;66.35
37792;BME280;29527;55.766;37.570;2023-01-31T01:08:24;97897.66;;;-0.11;66.15
37792;BME280;29527;55.766;37.570;2023-01-31T01:10:49;97901.53;;;-0.04;66.38
37792;BME280;29527;55.766;37.570;2023-01-31T01:13:15;97893.53;;;-0.16;66.25
37792;BME280;29527;55.766;37.570;2023-01-31T01:15:40;97917.22;;;-0.03;66.23
37792;BME280;29527;55.766;37.570;2023-01-31T01:18:05;97910.16;;;-0.02;66.49
37792;BME280;29527;55.766;37.570;2023-01-31T01:20:33;97909.97;;;0.01;66.16
37792;BME280;29527;55.766;37.570;2023-01-31T01:22:59;97901.75;;;-0.07;66.42
37792;BME280;29527;55.766;37.570;2023-01-31T01:25:25;97915.34;;;-0.01;66.21
37792;BME280;29527;55.766;37.570;2023-01-31T01:27:50;97906.81;;;-0.04;66.49
37792;BME280;29527;55.766;37.570;2023-01-31T01:30:16;97918.06;;;-0.02;66.21
37792;BME280;29527;55.766;37.570;2023-01-31T01:32:41;97908.09;;;-0.10;66.33
37792;BME280;29527;55.766;37.570;2023-01-31T01:35:07;97912.72;;;-0.01;66.31
37792;BME280;29527;55.766;37.570;2023-01-31T01:37:34;97906.41;;;0.02;66.00
37792;BME280;29527;55.766;37.570;2023-01-31T01:40:00;97915.25;;;0.01;66.24
37792;BME280;29527;55.766;37.570;2023-01-31T01:42:26;97914.28;;;0.02;65.88
37792;BME280;29527;55.766;37.570;2023-01-31T01:47:34;97922.19;;;0.02;66.11
37792;BME280;29527;55.766;37.570;2023-01-31T01:50:11;97919.66;;;0.01;66.32
37792;BME280;29527;55.766;37.570;2023-01-31T01:52:44;97897.22;;;-0.05;65.99
37792;BME280;29527;55.766;37.570;2023-01-31T01:55:18;97912.06;;;0.09;65.96
37792;BME280;29527;55.766;37.570;2023-01-31T01:57:46;97911.44;;;0.05;66.34
37792;BME280;29527;55.766;37.570;2023-01-31T02:00:15;97907.13;;;0.04;66.14
37792;BME280;29527;55.766;37.570;2023-01-31T02:02:45;97905.97;;;0.08;65.93
37792;BME280;29527;55.766;37.570;2023-01-31T02:05:14;97908.47;;;0.10;65.93
37792;BME280;29527;55.766;37.570;2023-01-31T02:07:41;97897.34;;;0.06;65.61
37792;BME280;29527;55.766;37.570;2023-01-31T02:10:19;97903.88;;;0.13;65.98
37792;BME280;29527;55.766;37.570;2023-01-31T02:12:46;97897.44;;;0.05;65.99
37792;BME280;29527;55.766;37.570;2023-01-31T02:15:12;97890.19;;;0.08;65.78
37792;BME280;29527;55.766;37.570;2023-01-31T02:17:38;97903.22;;;0.10;65.65
37792;BME280;29527;55.766;37.570;2023-01-31T02:20:16;97896.19;;;0.10;66.05
37792;BME280;29527;55.766;37.570;2023-01-31T02:39:06;97894.28;;;0.12;65.63
37792;BME280;29527;55.766;37.570;2023-01-31T02:42:03;97901.75;;;0.19;65.34
37792;BME280;29527;55.766;37.570;2023-01-31T02:44:51;97896.09;;;0.25;65.51
37792;BME280;29527;55.766;37.570;2023-01-31T02:53:07;97900.41;;;0.26;65.27
37792;BME280;29527;55.766;37.570;2023-01-31T02:55:38;97907.88;;;0.19;65.43
37792;BME280;29527;55.766;37.570;2023-01-31T02:58:26;97862.81;;;-0.02;64.70
37792;BME280;29527;55.766;37.570;2023-01-31T03:00:55;97906.28;;;0.17;65.14
37792;BME280;29527;55.766;37.570;2023-01-31T03:03:25;97902.28;;;0.11;65.25
37792;BME280;29527;55.766;37.570;2023-01-31T03:09:11;97898.28;;;0.31;65.33
37792;BME280;29527;55.766;37.570;2023-01-31T03:20:33;97914.59;;;0.36;64.92
37792;BME280;29527;55.766;37.570;2023-01-31T03:23:04;97914.38;;;0.26;64.82
37792;BME280;29527;55.766;37.570;2023-01-31T03:25:34;97916.94;;;0.28;64.51
37792;BME280;29527;55.766;37.570;2023-01-31T03:28:03;97915.34;;;0.25;64.82
37792;BME280;29527;55.766;37.570;2023-01-31T03:30:38;97886.31;;;0.01;65.26
37792;BME280;29527;55.766;37.570;2023-01-31T03:33:25;97922.81;;;0.32;64.97
37792;BME280;29527;55.766;37.570;2023-01-31T03:44:44;97921.03;;;0.32;65.27
37792;BME280;29527;55.766;37.570;2023-01-31T03:47:20;97929.22;;;0.27;65.07
37792;BME280;29527;55.766;37.570;2023-01-31T03:49:49;97932.06;;;0.24;65.23
37792;BME280;29527;55.766;37.570;2023-01-31T03:52:22;97939.66;;;0.29;65.07
37792;BME280;29527;55.766;37.570;2023-01-31T03:54:56;97933.53;;;0.41;64.79
37792;BME280;29527;55.766;37.570;2023-01-31T03:57:34;97920.50;;;0.40;64.47
37792;BME280;29527;55.766;37.570;2023-01-31T04:00:04;97921.75;;;0.34;65.10
37792;BME280;29527;55.766;37.570;2023-01-31T04:02:36;97929.53;;;0.36;64.72
37792;BME280;29527;55.766;37.570;2023-01-31T04:05:08;97938.72;;;0.30;65.14
37792;BME280;29527;55.766;37.570;2023-01-31T04:07:35;97938.28;;;0.36;64.83
37792;BME280;29527;55.766;37.570;2023-01-31T04:10:03;97950.81;;;0.33;64.90
37792;BME280;29527;55.766;37.570;2023-01-31T04:12:35;97929.97;;;0.30;64.85
37792;BME280;29527;55.766;37.570;2023-01-31T04:15:02;97928.94;;;0.32;64.92
37792;BME280;29527;55.766;37.570;2023-01-31T04:17:28;97941.13;;;0.33;65.55
37792;BME280;29527;55.766;37.570;2023-01-31T04:19:54;97932.28;;;0.34;65.16
37792;BME280;29527;55.766;37.570;2023-01-31T04:22:19;97945.31;;;0.36;64.74
37792;BME280;29527;55.766;37.570;2023-01-31T04:24:45;97949.03;;;0.46;64.79
37792;BME280;29527;55.766;37.570;2023-01-31T04:27:10;97954.16;;;0.48;64.57
37792;BME280;29527;55.766;37.570;2023-01-31T04:29:36;97943.34;;;0.39;64.41
37792;BME280;29527;55.766;37.570;2023-01-31T04:32:01;97946.63;;;0.30;65.18
37792;BME280;29527;55.766;37.570;2023-01-31T04:34:27;97951.88;;;0.30;65.30
37792;BME280;29527;55.766;37.570;2023-01-31T04:36:52;97961.97;;;0.36;64.78
37792;BME280;29527;55.766;37.570;2023-01-31T04:39:17;97962.41;;;0.43;64.67
37792;BME280;29527;55.766;37.570;2023-01-31T04:41:43;97962.84;;;0.37;64.73
37792;BME280;29527;55.766;37.570;2023-01-31T04:44:08;97969.88;;;0.36;64.91
37792;BME280;29527;55.766;37.570;2023-01-31T04:46:34;97960.22;;;0.37;64.99
37792;BME280;29527;55.766;37.570;2023-01-31T04:49:00;97965.56;;;0.35;65.08
37792;BME280;29527;55.766;37.570;2023-01-31T04:51:25;97944.50;;;0.22;65.10
37792;BME280;29527;55.766;37.570;2023-01-31T04:53:50;97976.09;;;0.35;65.24
37792;BME280;29527;55.766;37.570;2023-01-31T04:56:16;97981.16;;;0.38;65.53
37792;BME280;29527;55.766;37.570;2023-01-31T04:58:41;97977.56;;;0.39;65.44
37792;BME280;29527;55.766;37.570;2023-01-31T05:01:08;97947.00;;;0.24;64.90
37792;BME280;29527;55.766;37.570;2023-01-31T05:03:33;97969.66;;;0.39;65.44
37792;BME280;29527;55.766;37.570;2023-01-31T05:05:59;97967.34;;;0.48;64.71
37792;BME280;29527;55.766;37.570;2023-01-31T05:08:24;97961.56;;;0.42;64.96
37792;BME280;29527;55.766;37.570;2023-01-31T05:10:56;97965.88;;;0.43;65.35
37792;BME280;29527;55.766;37.570;2023-01-31T05:13:22;97976.31;;;0.45;65.13
37792;BME280;29527;55.766;37.570;2023-01-31T05:15:49;97983.91;;;0.50;65.08
37792;BME280;29527;55.766;37.570;2023-01-31T05:18:14;97984.94;;;0.47;65.36
37792;BME280;29527;55.766;37.570;2023-01-31T05:20:40;97994.09;;;0.41;65.17
37792;BME280;29527;55.766;37.570;2023-01-31T05:23:06;97982.41;;;0.46;65.64
37792;BME280;29527;55.766;37.570;2023-01-31T05:25:33;97986.19;;;0.41;65.73
37792;BME280;29527;55.766;37.570;2023-01-31T05:27:59;97991.47;;;0.41;65.38
37792;BME280;29527;55.766;37.570;2023-01-31T05:30:25;97967.88;;;0.27;65.77
37792;BME280;29527;55.766;37.570;2023-01-31T05:32:51;97989.78;;;0.40;65.59
37792;BME280;29527;55.766;37.570;2023-01-31T05:35:17;98005.91;;;0.49;65.24
37792;BME280;29527;55.766;37.570;2023-01-31T05:37:43;97990.41;;;0.44;65.97
37792;BME280;29527;55.766;37.570;2023-01-31T05:40:13;98000.00;;;0.45;66.03
37792;BME280;29527;55.766;37.570;2023-01-31T05:42:39;97995.25;;;0.50;65.87
37792;BME280;29527;55.766;37.570;2023-01-31T05:45:05;97993.25;;;0.54;65.28
37792;BME280;29527;55.766;37.570;2023-01-31T05:47:31;97987.47;;;0.49;65.66
37792;BME280;29527;55.766;37.570;2023-01-31T05:49:56;97972.28;;;0.39;65.33
37792;BME280;29527;55.766;37.570;2023-01-31T05:52:21;97999.28;;;0.56;65.44
37792;BME280;29527;55.766;37.570;2023-01-31T05:54:47;97994.22;;;0.53;65.83
37792;BME280;29527;55.766;37.570;2023-01-31T05:57:12;97996.84;;;0.53;65.40
37792;BME280;29527;55.766;37.570;2023-01-31T05:59:39;98007.59;;;0.63;65.46
37792;BME280;29527;55.766;37.570;2023-01-31T06:02:05;98003.28;;;0.62;65.50
37792;BME280;29527;55.766;37.570;2023-01-31T06:04:30;98009.69;;;0.57;65.64
37792;BME280;29527;55.766;37.570;2023-01-31T06:06:55;98017.50;;;0.59;65.67
37792;BME280;29527;55.766;37.570;2023-01-31T06:09:21;98014.44;;;0.65;65.55
37792;BME280;29527;55.766;37.570;2023-01-31T06:11:46;98012.75;;;0.64;65.31
37792;BME280;29527;55.766;37.570;2023-01-31T06:14:12;98016.03;;;0.55;65.26
37792;BME280;29527;55.766;37.570;2023-01-31T06:16:37;98019.16;;;0.60;65.69
37792;BME280;29527;55.766;37.570;2023-01-31T06:19:03;98023.59;;;0.60;65.84
37792;BME280;29527;55.766;37.570;2023-01-31T06:21:28;98021.72;;;0.62;65.79
37792;BME280;29527;55.766;37.570;2023-01-31T06:23:54;98029.28;;;0.66;65.01
37792;BME280;29527;55.766;37.570;2023-01-31T06:26:19;98027.59;;;0.65;65.03
37792;BME280;29527;55.766;37.570;2023-01-31T06:28:45;98031.91;;;0.66;65.44
37792;BME280;29527;55.766;37.570;2023-01-31T06:31:11;98030.22;;;0.65;65.09
37792;BME280;29527;55.766;37.570;2023-01-31T06:33:36;98039.41;;;0.73;65.49
37792;BME280;29527;55.766;37.570;2023-01-31T06:36:03;98037.69;;;0.71;65.92
37792;BME280;29527;55.766;37.570;2023-01-31T06:38:30;98040.03;;;0.76;65.54
37792;BME280;29527;55.766;37.570;2023-01-31T06:40:55;98042.22;;;0.82;64.95
37792;BME280;29527;55.766;37.570;2023-01-31T06:43:21;98040.13;;;0.88;65.17
37792;BME280;29527;55.766;37.570;2023-01-31T06:45:47;98046.34;;;0.87;64.95
37792;BME280;29527;55.766;37.570;2023-01-31T06:48:15;98057.00;;;0.85;65.23
37792;BME280;29527;55.766;37.570;2023-01-31T06:50:42;98063.50;;;0.92;65.22
37792;BME280;29527;55.766;37.570;2023-01-31T06:53:08;98062.16;;;0.87;65.46
37792;BME280;29527;55.766;37.570;2023-01-31T06:55:33;98041.50;;;0.80;64.95
37792;BME280;29527;55.766;37.570;2023-01-31T06:57:59;98061.44;;;0.97;65.26
37792;BME280;29527;55.766;37.570;2023-01-31T07:00:25;98062.03;;;1.01;64.81
37792;BME280;29527;55.766;37.570;2023-01-31T07:02:51;98071.09;;;1.10;64.71
37792;BME280;29527;55.766;37.570;2023-01-31T07:05:18;98069.41;;;1.09;64.50
37792;BME280;29527;55.766;37.570;2023-01-31T07:07:44;98078.69;;;1.02;64.31
37792;BME280;29527;55.766;37.570;2023-01-31T07:10:10;98079.53;;;1.02;64.74
37792;BME280;29527;55.766;37.570;2023-01-31T07:12:36;98072.78;;;0.98;64.40
37792;BME280;29527;55.766;37.570;2023-01-31T07:15:01;98076.81;;;1.04;64.63
37792;BME280;29527;55.766;37.570;2023-01-31T07:17:29;98083.75;;;1.05;64.52
37792;BME280;29527;55.766;37.570;2023-01-31T07:19:55;98082.81;;;1.06;64.55
37792;BME280;29527;55.766;37.570;2023-01-31T07:22:20;98063.94;;;0.86;64.80
37792;BME280;29527;55.766;37.570;2023-01-31T07:24:46;98088.81;;;1.08;64.65
37792;BME280;29527;55.766;37.570;2023-01-31T07:27:14;98092.41;;;1.07;64.65
37792;BME280;29527;55.766;37.570;2023-01-31T07:29:39;98095.69;;;1.10;64.72
37792;BME280;29527;55.766;37.570;2023-01-31T07:32:05;98079.72;;;1.12;64.97
37792;BME280;29527;55.766;37.570;2023-01-31T07:34:31;98091.53;;;1.19;64.50
37792;BME280;29527;55.766;37.570;2023-01-31T07:36:56;98095.75;;;1.22;64.55
37792;BME280;29527;55.766;37.570;2023-01-31T07:39:22;98093.63;;;1.27;63.79
37792;BME280;29527;55.766;37.570;2023-01-31T07:41:49;98105.34;;;1.23;63.44
37792;BME280;29527;55.766;37.570;2023-01-31T07:44:14;98098.28;;;1.23;64.20
37792;BME280;29527;55.766;37.570;2023-01-31T07:46:40;98099.84;;;1.26;63.83
37792;BME280;29527;55.766;37.570;2023-01-31T07:49:08;98087.22;;;1.18;64.04
37792;BME280;29527;55.766;37.570;2023-01-31T07:51:34;98083.09;;;1.14;63.88
37792;BME280;29527;55.766;37.570;2023-01-31T07:54:01;98122.09;;;1.35;63.83
37792;BME280;29527;55.766;37.570;2023-01-31T07:56:26;98111.56;;;1.35;63.21
37792;BME280;29527;55.766;37.570;2023-01-31T07:58:52;98117.88;;;1.32;64.00
37792;BME280;29527;55.766;37.570;2023-01-31T08:01:24;98118.50;;;1.36;63.94
37792;BME280;29527;55.766;37.570;2023-01-31T08:04:11;98122.31;;;1.32;64.16
37792;BME280;29527;55.766;37.570;2023-01-31T08:06:38;98135.19;;;1.36;64.30
37792;BME280;29527;55.766;37.570;2023-01-31T08:09:03;98126.13;;;1.40;63.46
37792;BME280;29527;55.766;37.570;2023-01-31T08:11:29;98125.25;;;1.40;63.35
37792;BME280;29527;55.766;37.570;2023-01-31T08:13:55;98129.56;;;1.41;64.00
37792;BME280;29527;55.766;37.570;2023-01-31T08:16:20;98139.72;;;1.47;63.87
37792;BME280;29527;55.766;37.570;2023-01-31T08:18:47;98133.38;;;1.50;63.20
37792;BME280;29527;55.766;37.570;2023-01-31T08:21:13;98137.69;;;1.51;63.72
37792;BME280;29527;55.766;37.570;2023-01-31T08:23:39;98142.97;;;1.51;63.16
37792;BME280;29527;55.766;37.570;2023-01-31T08:26:23;98146.22;;;1.67;62.88
37792;BME280;29527;55.766;37.570;2023-01-31T08:28:50;98151.50;;;1.54;63.09
37792;BME280;29527;55.766;37.570;2023-01-31T08:31:19;98149.91;;;1.52;63.65
37792;BME280;29527;55.766;37.570;2023-01-31T08:33:45;98160.25;;;1.55;63.22
37792;BME280;29527;55.766;37.570;2023-01-31T08:36:31;98156.97;;;1.64;63.34
37792;BME280;29527;55.766;37.570;2023-01-31T08:38:56;98136.50;;;1.55;63.07
37792;BME280;29527;55.766;37.570;2023-01-31T08:41:23;98153.72;;;1.61;63.23
37792;BME280;29527;55.766;37.570;2023-01-31T08:43:49;98149.16;;;1.63;62.55
37792;BME280;29527;55.766;37.570;2023-01-31T08:46:16;98159.63;;;1.64;62.81
37792;BME280;29527;55.766;37.570;2023-01-31T08:48:41;98150.34;;;1.58;62.93
37792;BME280;29527;55.766;37.570;2023-01-31T08:51:09;98152.16;;;1.58;62.95
37792;BME280;29527;55.766;37.570;2023-01-31T08:53:42;98133.47;;;1.61;62.77
37792;BME280;29527;55.766;37.570;2023-01-31T08:56:09;98152.22;;;1.69;63.01
37792;BME280;29527;55.766;37.570;2023-01-31T08:58:37;98155.59;;;1.71;62.60
37792;BME280;29527;55.766;37.570;2023-01-31T09:01:05;98145.53;;;1.77;62.74
37792;BME280;29527;55.766;37.570;2023-01-31T09:03:31;98143.03;;;1.75;62.30
37792;BME280;29527;55.766;37.570;2023-01-31T09:06:02;98142.91;;;1.77;62.68
37792;BME280;29527;55.766;37.570;2023-01-31T09:08:29;98143.75;;;1.77;62.16
37792;BME280;29527;55.766;37.570;2023-01-31T09:10:55;98144.38;;;1.81;62.26
37792;BME280;29527;55.766;37.570;2023-01-31T09:13:21;98148.31;;;1.75;62.64
37792;BME280;29527;55.766;37.570;2023-01-31T09:15:58;98142.69;;;1.80;62.75
37792;BME280;29527;55.766;37.570;2023-01-31T09:18:24;98153.47;;;1.77;62.20
37792;BME280;29527;55.766;37.570;2023-01-31T09:20:50;98124.81;;;1.59;62.99
37792;BME280;29527;55.766;37.570;2023-01-31T09:23:15;98146.72;;;1.72;62.47
37792;BME280;29527;55.766;37.570;2023-01-31T09:25:41;98148.53;;;1.72;62.51
37792;BME280;29527;55.766;37.570;2023-01-31T09:28:06;98146.19;;;1.80;62.44
37792;BME280;29527;55.766;37.570;2023-01-31T09:30:31;98148.41;;;1.74;63.03
37792;BME280;29527;55.766;37.570;2023-01-31T09:32:58;98109.72;;;1.61;62.78
37792;BME280;29527;55.766;37.570;2023-01-31T09:35:25;98144.03;;;1.85;62.70
37792;BME280;29527;55.766;37.570;2023-01-31T09:37:50;98128.28;;;1.97;61.80
37792;BME280;29527;55.766;37.570;2023-01-31T09:40:21;98123.50;;;2.02;62.08
37792;BME280;29527;55.766;37.570;2023-01-31T09:42:50;98099.59;;;1.92;62.00
37792;BME280;29527;55.766;37.570;2023-01-31T09:45:32;98094.41;;;2.15;61.34
37792;BME280;29527;55.766;37.570;2023-01-31T09:48:00;98142.16;;;2.36;61.37
37792;BME280;29527;55.766;37.570;2023-01-31T09:52:54;98140.75;;;2.43;60.62
37792;BME280;29527;55.766;37.570;2023-01-31T09:55:34;98150.13;;;2.48;60.97
37792;BME280;29527;55.766;37.570;2023-01-31T09:58:03;98137.16;;;2.44;60.63
37792;BME280;29527;55.766;37.570;2023-01-31T10:00:42;98141.75;;;2.54;60.53
37792;BME280;29527;55.766;37.570;2023-01-31T10:06:55;98136.03;;;2.71;60.80
37792;BME280;29527;55.766;37.570;2023-01-31T10:09:28;98153.22;;;2.77;59.81
37792;BME280;29527;55.766;37.570;2023-01-31T10:12:14;98148.69;;;2.91;59.70
37792;BME280;29527;55.766;37.570;2023-01-31T10:14:56;98144.22;;;2.80;59.45
37792;BME280;29527;55.766;37.570;2023-01-31T10:17:42;98152.63;;;2.73;60.28
37792;BME280;29527;55.766;37.570;2023-01-31T10:20:46;98150.66;;;2.64;60.66
37792;BME280;29527;55.766;37.570;2023-01-31T10:23:20;98167.84;;;2.70;60.04
37792;BME280;29527;55.766;37.570;2023-01-31T10:25:51;98165.94;;;2.72;59.74
37792;BME280;29527;55.766;37.570;2023-01-31T10:28:20;98165.34;;;2.68;59.95
37792;BME280;29527;55.766;37.570;2023-01-31T10:36:03;98168.88;;;2.56;59.89
37792;BME280;29527;55.766;37.570;2023-01-31T10:38:34;98166.97;;;2.58;60.17
37792;BME280;29527;55.766;37.570;2023-01-31T10:41:13;98170.00;;;2.65;60.19
37792;BME280;29527;55.766;37.570;2023-01-31T10:43:52;98175.28;;;2.65;60.38
37792;BME280;29527;55.766;37.570;2023-01-31T10:46:21;98167.94;;;2.57;59.72
37792;BME280;29527;55.766;37.570;2023-01-31T10:48:47;98160.72;;;2.59;60.38
37792;BME280;29527;55.766;37.570;2023-01-31T10:52:40;98171.84;;;2.76;60.16
37792;BME280;29527;55.766;37.570;2023-01-31T10:57:02;98176.28;;;2.75;59.61
37792;BME280;29527;55.766;37.570;2023-01-31T10:59:34;98170.31;;;2.84;59.65
37792;BME280;29527;55.766;37.570;2023-01-31T11:02:01;98180.50;;;2.78;59.44
37792;BME280;29527;55.766;37.570;2023-01-31T11:04:42;98141.28;;;2.60;59.95
37792;BME280;29527;55.766;37.570;2023-01-31T11:07:08;98176.50;;;2.72;59.62
37792;BME280;29527;55.766;37.570;2023-01-31T11:09:42;98182.19;;;2.79;60.07
37792;BME280;29527;55.766;37.570;2023-01-31T11:12:11;98174.38;;;2.77;59.78
37792;BME280;29527;55.766;37.570;2023-01-31T11:14:36;98175.84;;;2.81;59.42
37792;BME280;29527;55.766;37.570;2023-01-31T11:17:22;98183.88;;;2.80;60.05
37792;BME280;29527;55.766;37.570;2023-01-31T11:19:54;98176.34;;;2.62;60.00
37792;BME280;29527;55.766;37.570;2023-01-31T11:22:29;98143.91;;;2.49;59.91
37792;BME280;29527;55.766;37.570;2023-01-31T11:24:57;98181.03;;;2.58;60.28
37792;BME280;29527;55.766;37.570;2023-01-31T11:27:32;98166.88;;;2.60;60.03
37792;BME280;29527;55.766;37.570;2023-01-31T11:30:01;98170.09;;;2.52;59.67
37792;BME280;29527;55.766;37.570;2023-01-31T11:32:34;98175.38;;;2.52;60.21
37792;BME280;29527;55.766;37.570;2023-01-31T11:35:02;98162.50;;;2.47;59.92
37792;BME280;29527;55.766;37.570;2023-01-31T11:37:30;98167.66;;;2.49;59.92
37792;BME280;29527;55.766;37.570;2023-01-31T11:40:17;98162.66;;;2.57;60.10
37792;BME280;29527;55.766;37.570;2023-01-31T11:42:52;98174.44;;;2.64;60.21
37792;BME280;29527;55.766;37.570;2023-01-31T11:45:21;98166.19;;;2.69;59.55
37792;BME280;29527;55.766;37.570;2023-01-31T11:47:53;98168.72;;;2.70;59.10
37792;BME280;29527;55.766;37.570;2023-01-31T11:50:41;98176.66;;;2.82;59.67
37792;BME280;29527;55.766;37.570;2023-01-31T11:53:17;98174.38;;;2.77;59.34
37792;BME280;29527;55.766;37.570;2023-01-31T11:55:45;98178.97;;;2.51;59.75
37792;BME280;29527;55.766;37.570;2023-01-31T11:58:18;98171.75;;;2.53;60.01
37792;BME280;29527;55.766;37.570;2023-01-31T12:01:12;98174.66;;;2.61;60.07
37792;BME280;29527;55.766;37.570;2023-01-31T12:03:39;98180.66;;;2.52;60.23
37792;BME280;29527;55.766;37.570;2023-01-31T12:06:34;98188.59;;;2.63;60.01
37792;BME280;29527;55.766;37.570;2023-01-31T12:09:02;98186.94;;;2.62;59.52
37792;BME280;29527;55.766;37.570;2023-01-31T12:11:31;98182.59;;;2.61;59.68
37792;BME280;29527;55.766;37.570;2023-01-31T12:14:16;98193.22;;;2.72;59.82
37792;BME280;29527;55.766;37.570;2023-01-31T12:16:44;98157.09;;;2.49;59.04
37792;BME280;29527;55.766;37.570;2023-01-31T12:46:45;98189.63;;;2.49;60.58
37792;BME280;29527;55.766;37.570;2023-01-31T12:51:58;98201.06;;;2.50;60.54
37792;BME280;29527;55.766;37.570;2023-01-31T12:59:30;98201.22;;;2.35;60.95
37792;BME280;29527;55.766;37.570;2023-01-31T13:04:56;98220.34;;;2.39;61.09
37792;BME280;29527;55.766;37.570;2023-01-31T13:09:57;98208.31;;;2.35;61.51
37792;BME280;29527;55.766;37.570;2023-01-31T13:12:27;98216.66;;;2.28;61.00
37792;BME280;29527;55.766;37.570;2023-01-31T13:17:28;98223.97;;;2.49;60.69
37792;BME280;29527;55.766;37.570;2023-01-31T13:20:25;98205.75;;;2.33;61.04
37792;BME280;29527;55.766;37.570;2023-01-31T13:22:56;98203.41;;;2.17;61.55
37792;BME280;29527;55.766;37.570;2023-01-31T13:28:01;98219.25;;;2.17;61.67
37792;BME280;29527;55.766;37.570;2023-01-31T13:30:45;98219.34;;;2.15;62.23
37792;BME280;29527;55.766;37.570;2023-01-31T13:36:05;98226.97;;;2.07;62.07
37792;BME280;29527;55.766;37.570;2023-01-31T13:38:36;98241.13;;;2.06;61.88
37792;BME280;29527;55.766;37.570;2023-01-31T13:41:04;98251.19;;;2.01;62.37
37792;BME280;29527;55.766;37.570;2023-01-31T13:43:31;98269.44;;;2.04;61.97
37792;BME280;29527;55.766;37.570;2023-01-31T13:46:06;98264.25;;;2.03;62.51
37792;BME280;29527;55.766;37.570;2023-01-31T13:48:37;98267.00;;;2.01;62.57
37792;BME280;29527;55.766;37.570;2023-01-31T13:53:52;98273.44;;;2.10;62.42
37792;BME280;29527;55.766;37.570;2023-01-31T13:56:27;98269.72;;;2.12;61.96
37792;BME280;29527;55.766;37.570;2023-01-31T13:58:54;98271.63;;;2.10;62.39
37792;BME280;29527;55.766;37.570;2023-01-31T14:01:23;98276.19;;;2.08;61.77
37792;BME280;29527;55.766;37.570;2023-01-31T14:09:27;98281.16;;;2.00;62.15
37792;BME280;29527;55.766;37.570;2023-01-31T14:12:02;98281.69;;;2.05;62.36
37792;BME280;29527;55.766;37.570;2023-01-31T14:14:51;98270.91;;;2.08;62.22
37792;BME280;29527;55.766;37.570;2023-01-31T14:22:31;98288.94;;;2.14;61.69
37792;BME280;29527;55.766;37.570;2023-01-31T14:25:05;98289.16;;;2.11;61.66
37792;BME280;29527;55.766;37.570;2023-01-31T14:27:40;98292.25;;;2.05;61.71
37792;BME280;29527;55.766;37.570;2023-01-31T14:30:40;98293.25;;;2.15;61.49
37792;BME280;29527;55.766;37.570;2023-01-31T14:41:41;98293.84;;;2.08;62.12
37792;BME280;29527;55.766;37.570;2023-01-31T14:47:07;98283.56;;;2.16;61.99
37792;BME280;29527;55.766;37.570;2023-01-31T14:52:38;98292.91;;;2.33;60.81
37792;BME280;29527;55.766;37.570;2023-01-31T14:57:58;98294.53;;;2.23;61.54
37792;BME280;29527;55.766;37.570;2023-01-31T15:00:32;98302.13;;;2.27;61.77
37792;BME280;29527;55.766;37.570;2023-01-31T15:13:51;98305.84;;;2.25;62.10
37792;BME280;29527;55.766;37.570;2023-01-31T15:18:45;98301.41;;;2.12;62.32
37792;BME280;29527;55.766;37.570;2023-01-31T15:21:19;98287.19;;;2.02;61.94
37792;BME280;29527;55.766;37.570;2023-01-31T15:23:46;98278.75;;;1.97;62.18
37792;BME280;29527;55.766;37.570;2023-01-31T15:26:15;98310.06;;;2.14;62.18
37792;BME280;29527;55.766;37.570;2023-01-31T15:28:43;98308.16;;;2.17;62.08
37792;BME280;29527;55.766;37.570;2023-01-31T15:31:30;98318.59;;;2.31;62.23
37792;BME280;29527;55.766;37.570;2023-01-31T15:34:00;98326.22;;;2.23;61.92
37792;BME280;29527;55.766;37.570;2023-01-31T15:38:59;98319.25;;;2.22;62.47
37792;BME280;29527;55.766;37.570;2023-01-31T15:41:45;98317.66;;;2.32;62.33
37792;BME280;29527;55.766;37.570;2023-01-31T15:44:18;98326.00;;;2.26;62.27
37792;BME280;29527;55.766;37.570;2023-01-31T15:46:47;98328.22;;;2.32;62.53